Flugplatz Düsseldorf (EDDL)

Hier findest Du alle Informationen zum Flugplatz Düsseldorf (EDDL).

Informationen für Piloten zum Flugplatz Düsseldorf

Hier findest Du alle relevanten Informationen, die Du als Pilot benötigst, um Düsseldorf anzufliegen.

Flugplatz: Düsseldorf ICAO-Code: EDDL
Frequenz Turm: 118,300 Mhz GAFOR Gebiet: -2
Frequenz Ground: 121,900 Mhz Mogas: nein
Platzrunde: - Landegebühr: -
Platzhöhe: - Sunrise: 05:15 Uhr UTC
Pisten: 05R/23L - 2.700 m x 45 m, ASPH Sunset: 17:37 Uhr UTC

Flugwetter am Flugplatz Düsseldorf

Die METAR Information stammen aus EDDL.

METAR Code:
2020/09/09 16:20
EDDL 091620Z 24006KT 9999 FEW022 22/16 Q1020 NOSIG

Temperatur: 20,7 °C Niederschlag: - Wind: 4,1 kt
Temperatur (min.): 19,0 °C Luftdruck: 1017 hPa Windrichtung: 320 °
Temperatur (max.): 21,7 °C Luftfeuchtigkeit: 37 % Bewölkung: -

Flugschulen am Flugplatz Düsseldorf

Am Flugplatz Düsseldorf gibt es leider keine Flugschule.

Benachbarte Flugplätze und Flugschulen

Es gibt 19 weitere Flugplätze in einem Umkreis von 50 km um den Flugplatz Düsseldorf.

Jetzt anmelden

Passwort vergessen

Umfrage Archiv

Wären Rettungsgeräte keine Pflicht mehr, würdet Ihr Euer UL trotzdem mit einem ausstatten?

Ja
85.4 %
Nein
14.6 %
Stimmen: 314 | Diskussion
Anzeige: Roland Aircraft
Statistik Alle Mitglieder

Aktuell sind 78 Besucher online.

Anzeige: VFR Sprechfunk Simulator


Anzeige: Pocket FMS